Time;durP1;ratioP1;P1;durP2;ratioP2;P2;SDS_P1;SDS_P2;PMS_P1;PMS_P2;Temp;Humidity;BMP_temperature;BMP_pressure;BME280_temperature;BME280_humidity;BME280_pressure;Samples;Min_cycle;Max_cycle;Signal;HPM_P1;HPM_P2
2022/01/03 00:01:55;;;;;;;20.42;8.43;;;;;;;;;;4827689;29;20050;-70
2022/01/03 00:04:23;;;;;;;11.23;7.85;;;;;;;;;;4834453;29;20042;-72
2022/01/03 00:06:51;;;;;;;9.52;6.68;;;;;;;;;;4850523;29;20121;-71
2022/01/03 00:09:19;;;;;;;9.00;7.72;;;;;;;;;;4827754;29;20046;-71
2022/01/03 00:11:47;;;;;;;8.23;6.30;;;;;;;;;;4850909;29;20043;-71
2022/01/03 00:14:14;;;;;;;6.45;5.82;;;;;;;;;;4823248;29;20129;-70
2022/01/03 00:16:42;;;;;;;12.93;9.75;;;;;;;;;;4834080;29;20556;-71
2022/01/03 00:19:10;;;;;;;10.73;8.65;;;;;;;;;;4840746;29;20053;-71
2022/01/03 00:21:40;;;;;;;21.58;10.40;;;;;;;;;;4839800;29;20099;-71
2022/01/03 00:24:09;;;;;;;13.55;9.95;;;;;;;;;;4841866;29;20438;-72
2022/01/03 00:26:37;;;;;;;6.97;6.20;;;;;;;;;;4830782;29;20198;-70
2022/01/03 00:29:16;;;;;;;7.43;6.20;;;;;;;;;;4823347;29;20510;-71
2022/01/03 00:31:43;;;;;;;7.50;6.70;;;;;;;;;;4822683;29;20048;-72
2022/01/03 00:34:12;;;;;;;10.63;8.80;;;;;;;;;;4821824;29;20080;-72
2022/01/03 00:36:39;;;;;;;15.10;9.30;;;;;;;;;;4823207;29;20046;-72
2022/01/03 00:39:08;;;;;;;8.68;7.47;;;;;;;;;;4822631;29;20038;-72
2022/01/03 00:41:39;;;;;;;7.57;6.28;;;;;;;;;;4822429;29;20053;-72
2022/01/03 00:44:06;;;;;;;10.55;6.20;;;;;;;;;;4886648;23;20047;-65
2022/01/03 00:46:34;;;;;;;5.90;4.97;;;;;;;;;;4818314;29;20053;-65
2022/01/03 00:49:02;;;;;;;7.00;6.13;;;;;;;;;;4822169;29;20121;-64
2022/01/03 00:51:29;;;;;;;8.68;7.65;;;;;;;;;;4831732;29;20153;-65
2022/01/03 00:53:57;;;;;;;6.38;5.78;;;;;;;;;;4840672;29;20042;-65
2022/01/03 00:56:28;;;;;;;5.88;5.30;;;;;;;;;;4839854;29;20064;-64
2022/01/03 00:59:00;;;;;;;6.35;5.75;;;;;;;;;;4840523;29;20049;-65
2022/01/03 01:01:27;;;;;;;8.32;7.28;;;;;;;;;;4828560;29;20336;-65
2022/01/03 01:03:56;;;;;;;9.30;6.95;;;;;;;;;;4820886;29;20060;-65
2022/01/03 01:06:24;;;;;;;8.18;7.32;;;;;;;;;;4821666;29;20047;-65
2022/01/03 01:08:55;;;;;;;5.35;4.50;;;;;;;;;;4819849;29;20046;-65
2022/01/03 01:11:25;;;;;;;6.82;6.20;;;;;;;;;;4820919;29;20141;-65
2022/01/03 01:13:53;;;;;;;7.25;6.50;;;;;;;;;;4820676;29;20570;-67
2022/01/03 01:16:23;;;;;;;8.10;5.63;;;;;;;;;;4829456;29;20414;-65
2022/01/03 01:18:52;;;;;;;4.55;4.15;;;;;;;;;;4839042;29;20041;-65
2022/01/03 01:21:22;;;;;;;4.65;4.20;;;;;;;;;;4837874;29;20529;-65
2022/01/03 01:23:56;;;;;;;6.78;6.13;;;;;;;;;;4840085;29;20077;-65
2022/01/03 01:29:11;;;;;;;8.27;7.28;;;;;;;;;;4838893;29;20491;-66
2022/01/03 01:32:01;;;;;;;8.50;7.00;;;;;;;;;;4838812;29;20050;-65
2022/01/03 01:34:29;;;;;;;8.48;7.57;;;;;;;;;;4839133;29;20129;-65
2022/01/03 01:36:59;;;;;;;7.60;6.90;;;;;;;;;;4824548;29;20042;-65
2022/01/03 01:39:28;;;;;;;4.28;3.88;;;;;;;;;;4820609;29;20042;-65
2022/01/03 01:41:58;;;;;;;7.18;6.50;;;;;;;;;;4819719;29;20456;-65
2022/01/03 01:44:27;;;;;;;8.17;6.30;;;;;;;;;;4819493;29;20124;-65
2022/01/03 01:46:57;;;;;;;8.90;8.00;;;;;;;;;;4829115;29;20067;-65
2022/01/03 01:49:26;;;;;;;7.47;6.10;;;;;;;;;;4838810;29;20046;-65
2022/01/03 01:52:00;;;;;;;7.60;6.90;;;;;;;;;;4823416;29;20034;-65
2022/01/03 01:54:33;;;;;;;9.43;8.48;;;;;;;;;;4819757;29;20380;-65
2022/01/03 01:57:03;;;;;;;5.72;5.18;;;;;;;;;;4819124;29;20045;-65
2022/01/03 01:59:52;;;;;;;7.00;5.78;;;;;;;;;;4849800;29;20614;-65
2022/01/03 02:02:35;;;;;;;6.22;5.63;;;;;;;;;;4821723;29;20072;-65
2022/01/03 02:05:16;;;;;;;5.90;4.78;;;;;;;;;;4827326;29;20038;-65
2022/01/03 02:08:06;;;;;;;6.15;5.55;;;;;;;;;;4819558;29;20133;-65
2022/01/03 02:10:39;;;;;;;8.27;6.75;;;;;;;;;;4818577;29;20137;-65
2022/01/03 02:13:07;;;;;;;7.28;5.57;;;;;;;;;;4819519;29;20117;-65
2022/01/03 02:15:37;;;;;;;10.45;6.75;;;;;;;;;;4849232;29;20046;-65
2022/01/03 02:18:07;;;;;;;6.65;5.97;;;;;;;;;;4820002;29;20042;-65
2022/01/03 02:20:34;;;;;;;8.60;6.88;;;;;;;;;;4818434;29;20050;-65
2022/01/03 02:23:06;;;;;;;7.90;6.88;;;;;;;;;;4805332;29;20133;-65
2022/01/03 02:25:37;;;;;;;11.70;8.50;;;;;;;;;;4820038;29;20048;-65
2022/01/03 02:28:04;;;;;;;9.40;5.68;;;;;;;;;;4819588;29;20047;-65
2022/01/03 02:30:33;;;;;;;6.80;6.10;;;;;;;;;;4819026;29;20046;-65
2022/01/03 02:33:01;;;;;;;7.38;6.63;;;;;;;;;;4820817;29;20608;-65
2022/01/03 02:35:29;;;;;;;6.30;5.70;;;;;;;;;;4819431;29;20054;-66
2022/01/03 02:37:56;;;;;;;6.45;5.78;;;;;;;;;;4820960;29;20495;-65
2022/01/03 02:40:25;;;;;;;4.28;3.92;;;;;;;;;;4803539;29;20046;-65
2022/01/03 02:42:54;;;;;;;5.90;5.30;;;;;;;;;;4819116;29;20049;-65
2022/01/03 02:45:25;;;;;;;5.30;4.80;;;;;;;;;;4819433;29;20054;-65
2022/01/03 02:47:55;;;;;;;8.05;7.30;;;;;;;;;;4819938;29;20123;-65
2022/01/03 02:50:24;;;;;;;6.63;5.53;;;;;;;;;;4818371;29;20046;-65
2022/01/03 02:52:52;;;;;;;8.10;7.30;;;;;;;;;;4819096;29;20050;-65
2022/01/03 02:55:21;;;;;;;7.50;6.80;;;;;;;;;;4818447;29;20046;-65
2022/01/03 02:57:50;;;;;;;7.80;6.85;;;;;;;;;;4819022;29;20038;-65
2022/01/03 03:00:19;;;;;;;8.18;7.38;;;;;;;;;;4819319;29;20047;-65
2022/01/03 03:02:47;;;;;;;7.85;7.15;;;;;;;;;;4820087;29;20070;-65
2022/01/03 03:05:17;;;;;;;7.60;6.82;;;;;;;;;;4818824;29;20046;-65
2022/01/03 03:07:45;;;;;;;7.93;7.20;;;;;;;;;;4818649;29;20046;-65
2022/01/03 03:10:15;;;;;;;7.40;6.78;;;;;;;;;;4817783;29;20053;-65
2022/01/03 03:12:42;;;;;;;7.10;6.40;;;;;;;;;;4819603;29;20042;-65
2022/01/03 03:15:11;;;;;;;7.97;6.13;;;;;;;;;;4819730;29;20077;-64
2022/01/03 03:17:39;;;;;;;5.45;4.70;;;;;;;;;;4818774;29;20492;-66
2022/01/03 03:20:08;;;;;;;8.30;7.50;;;;;;;;;;4817964;29;20121;-65
2022/01/03 03:22:36;;;;;;;7.85;7.05;;;;;;;;;;4819489;29;20133;-65
2022/01/03 03:25:06;;;;;;;7.22;6.53;;;;;;;;;;4818623;29;20290;-65
2022/01/03 03:27:34;;;;;;;8.65;7.78;;;;;;;;;;4837006;29;20154;-65
2022/01/03 03:30:27;;;;;;;5.80;5.30;;;;;;;;;;4834282;29;20046;-65
2022/01/03 03:32:57;;;;;;;6.82;6.22;;;;;;;;;;4818491;29;20046;-65
2022/01/03 03:35:25;;;;;;;6.85;6.25;;;;;;;;;;4819560;29;20485;-66
2022/01/03 03:37:52;;;;;;;5.55;4.93;;;;;;;;;;4818648;29;20042;-65
2022/01/03 03:40:20;;;;;;;5.50;5.00;;;;;;;;;;4818144;29;20073;-65
2022/01/03 03:42:48;;;;;;;4.90;4.43;;;;;;;;;;4820224;29;20145;-65
2022/01/03 03:45:15;;;;;;;4.50;4.10;;;;;;;;;;4820886;29;20056;-65
2022/01/03 03:47:44;;;;;;;5.03;4.53;;;;;;;;;;4838861;29;20153;-65
2022/01/03 03:50:12;;;;;;;6.20;5.70;;;;;;;;;;4837050;29;20054;-65
2022/01/03 03:52:39;;;;;;;6.20;5.60;;;;;;;;;;4821419;29;20491;-65
2022/01/03 03:55:08;;;;;;;6.55;5.95;;;;;;;;;;4819511;29;20080;-65
2022/01/03 03:57:35;;;;;;;6.85;6.25;;;;;;;;;;4818346;29;20614;-65
2022/01/03 04:00:05;;;;;;;8.68;7.30;;;;;;;;;;4817986;29;20087;-65
2022/01/03 04:02:39;;;;;;;7.55;6.78;;;;;;;;;;4800913;29;20057;-65
2022/01/03 04:05:10;;;;;;;8.00;6.23;;;;;;;;;;4800732;29;20427;-65
2022/01/03 04:07:38;;;;;;;7.40;6.32;;;;;;;;;;4836517;29;20517;-65
2022/01/03 04:10:18;;;;;;;8.00;6.25;;;;;;;;;;4836147;29;20460;-65
2022/01/03 04:12:47;;;;;;;7.57;6.88;;;;;;;;;;4800101;29;20062;-64
2022/01/03 04:15:15;;;;;;;6.57;5.88;;;;;;;;;;4801400;29;20043;-65
2022/01/03 04:17:42;;;;;;;5.72;5.18;;;;;;;;;;4819937;29;20124;-65
2022/01/03 04:20:15;;;;;;;7.90;7.10;;;;;;;;;;4817449;29;20046;-65
2022/01/03 04:22:43;;;;;;;6.05;5.47;;;;;;;;;;4819481;29;20436;-65
2022/01/03 04:25:11;;;;;;;7.47;6.80;;;;;;;;;;4817988;29;20045;-65
2022/01/03 04:27:39;;;;;;;6.75;5.60;;;;;;;;;;4819877;29;20499;-65
2022/01/03 04:30:07;;;;;;;5.15;4.65;;;;;;;;;;4817937;29;20530;-66
2022/01/03 04:32:35;;;;;;;6.00;5.50;;;;;;;;;;4817994;29;20046;-65
2022/01/03 04:35:02;;;;;;;10.07;6.50;;;;;;;;;;4818705;29;20058;-66
2022/01/03 04:37:30;;;;;;;10.15;7.72;;;;;;;;;;4814067;29;20042;-66
2022/01/03 04:39:58;;;;;;;9.98;6.78;;;;;;;;;;4817807;29;20457;-65
2022/01/03 04:42:26;;;;;;;7.03;6.35;;;;;;;;;;4818495;29;20446;-65
2022/01/03 04:44:56;;;;;;;7.60;6.50;;;;;;;;;;4821649;29;20065;-66
2022/01/03 04:47:24;;;;;;;6.85;6.25;;;;;;;;;;4821318;29;20141;-66
2022/01/03 04:49:51;;;;;;;12.73;7.60;;;;;;;;;;4822372;29;20171;-67
2022/01/03 04:52:19;;;;;;;7.30;6.60;;;;;;;;;;4854166;29;20532;-66
2022/01/03 04:54:46;;;;;;;6.85;6.20;;;;;;;;;;4856523;29;20458;-65
2022/01/03 04:57:14;;;;;;;6.80;6.20;;;;;;;;;;4840660;29;20054;-66
2022/01/03 04:59:41;;;;;;;11.00;7.03;;;;;;;;;;4837608;29;20081;-66
2022/01/03 05:02:08;;;;;;;7.45;6.75;;;;;;;;;;4822577;29;20058;-66
2022/01/03 05:04:36;;;;;;;7.07;6.47;;;;;;;;;;4823071;29;20421;-66
2022/01/03 05:07:04;;;;;;;7.88;7.07;;;;;;;;;;4822331;29;20526;-66
2022/01/03 05:09:32;;;;;;;7.07;6.38;;;;;;;;;;4822038;29;20057;-66
2022/01/03 05:12:00;;;;;;;7.05;6.35;;;;;;;;;;4835451;29;20446;-65
2022/01/03 05:14:28;;;;;;;6.03;5.50;;;;;;;;;;4841026;29;20137;-65
2022/01/03 05:16:57;;;;;;;5.20;4.70;;;;;;;;;;4840636;29;20167;-66
2022/01/03 05:19:26;;;;;;;4.38;3.97;;;;;;;;;;4840622;29;20052;-65
2022/01/03 05:21:53;;;;;;;5.70;3.42;;;;;;;;;;4826841;29;20050;-65
2022/01/03 05:24:24;;;;;;;4.00;3.28;;;;;;;;;;4805345;29;20065;-65
2022/01/03 05:26:53;;;;;;;8.10;5.03;;;;;;;;;;4820346;29;20046;-65
2022/01/03 05:29:21;;;;;;;2.70;2.50;;;;;;;;;;4821822;29;20058;-66
2022/01/03 05:31:49;;;;;;;2.95;1.90;;;;;;;;;;4832487;29;20053;-66
2022/01/03 05:34:16;;;;;;;4.28;2.30;;;;;;;;;;4838939;29;20046;-66
2022/01/03 05:36:45;;;;;;;2.00;1.75;;;;;;;;;;4838468;29;20053;-66
2022/01/03 05:39:14;;;;;;;1.95;1.80;;;;;;;;;;4838540;29;20482;-66
2022/01/03 05:41:42;;;;;;;3.00;1.50;;;;;;;;;;4826367;29;20084;-66
2022/01/03 05:44:11;;;;;;;1.73;1.58;;;;;;;;;;4820601;29;20053;-66
2022/01/03 05:46:39;;;;;;;1.77;1.52;;;;;;;;;;4831542;29;20468;-66
2022/01/03 05:49:08;;;;;;;1.33;1.20;;;;;;;;;;4823705;29;20090;-66
2022/01/03 05:51:35;;;;;;;2.00;0.90;;;;;;;;;;4837010;29;20498;-66
2022/01/03 05:54:04;;;;;;;1.40;0.93;;;;;;;;;;4838507;29;20098;-65
2022/01/03 05:56:31;;;;;;;2.60;0.98;;;;;;;;;;4838168;29;20077;-65
2022/01/03 05:58:59;;;;;;;0.70;0.70;;;;;;;;;;4838813;29;20110;-65
2022/01/03 06:01:27;;;;;;;0.93;0.70;;;;;;;;;;4828436;29;20042;-66
2022/01/03 06:04:12;;;;;;;2.22;0.90;;;;;;;;;;4820111;29;20422;-66
2022/01/03 06:06:54;;;;;;;0.80;0.75;;;;;;;;;;4832784;29;20157;-66
2022/01/03 06:09:29;;;;;;;1.10;1.00;;;;;;;;;;4838152;29;20057;-66
2022/01/03 06:11:58;;;;;;;0.77;0.77;;;;;;;;;;4837739;29;20507;-65
2022/01/03 06:14:27;;;;;;;1.15;1.10;;;;;;;;;;4838464;29;20042;-66
2022/01/03 06:16:55;;;;;;;0.93;0.93;;;;;;;;;;4825883;29;20045;-65
2022/01/03 06:19:23;;;;;;;1.17;1.08;;;;;;;;;;4820022;29;20042;-66
2022/01/03 06:21:52;;;;;;;4.78;1.10;;;;;;;;;;4819850;29;20081;-66
2022/01/03 06:24:22;;;;;;;1.52;0.98;;;;;;;;;;4820122;29;20455;-65
2022/01/03 06:26:51;;;;;;;0.90;0.90;;;;;;;;;;4819081;29;20107;-66
2022/01/03 06:29:20;;;;;;;3.53;1.23;;;;;;;;;;4819953;29;20043;-65
2022/01/03 06:31:50;;;;;;;1.58;0.90;;;;;;;;;;4831756;29;20045;-65
2022/01/03 06:34:19;;;;;;;2.30;1.02;;;;;;;;;;4838070;29;20102;-66
2022/01/03 06:36:47;;;;;;;1.13;0.88;;;;;;;;;;4837790;29;20526;-66
2022/01/03 06:39:14;;;;;;;2.15;1.10;;;;;;;;;;4838684;29;20050;-66
2022/01/03 06:41:42;;;;;;;3.58;1.20;;;;;;;;;;4825902;29;20042;-65
2022/01/03 06:44:25;;;;;;;3.30;1.20;;;;;;;;;;4820419;24;20540;31
2022/01/03 06:46:53;;;;;;;1.45;1.20;;;;;;;;;;4785704;29;20427;-73
2022/01/03 06:49:21;;;;;;;1.45;1.08;;;;;;;;;;4783489;30;20431;-74
2022/01/03 06:51:48;;;;;;;1.33;1.10;;;;;;;;;;4783116;29;20586;-73
2022/01/03 06:54:16;;;;;;;1.50;1.40;;;;;;;;;;4768518;30;20055;-74
2022/01/03 06:56:49;;;;;;;3.13;1.63;;;;;;;;;;4794948;29;20057;-74
2022/01/03 06:59:17;;;;;;;1.83;1.50;;;;;;;;;;4800901;29;20492;-74
2022/01/03 07:01:45;;;;;;;2.38;1.63;;;;;;;;;;4800347;29;20102;-73
2022/01/03 07:04:14;;;;;;;1.98;1.70;;;;;;;;;;4784700;29;20157;-72
2022/01/03 07:06:41;;;;;;;1.70;1.60;;;;;;;;;;4783794;29;20059;-73
2022/01/03 07:09:08;;;;;;;1.98;1.52;;;;;;;;;;4799283;29;20096;-73
2022/01/03 07:11:36;;;;;;;2.78;1.48;;;;;;;;;;4793103;29;20113;-73
2022/01/03 07:19:39;;;;;;;3.33;2.92;;;;;;;;;;4780618;30;20051;-72
2022/01/03 07:22:08;;;;;;;5.88;3.28;;;;;;;;;;4787659;29;20103;-73
2022/01/03 07:24:36;;;;;;;4.05;3.33;;;;;;;;;;4784123;29;20062;-72
2022/01/03 07:27:04;;;;;;;5.90;2.65;;;;;;;;;;4784953;29;20441;-73
2022/01/03 07:29:32;;;;;;;3.90;3.50;;;;;;;;;;4781334;30;20214;-73
2022/01/03 07:32:00;;;;;;;2.92;2.20;;;;;;;;;;4794129;29;20124;-73
2022/01/03 07:34:28;;;;;;;2.45;1.23;;;;;;;;;;4769648;29;20578;-73
2022/01/03 07:36:56;;;;;;;2.90;2.10;;;;;;;;;;4801782;29;20426;-74
2022/01/03 07:39:24;;;;;;;2.45;2.25;;;;;;;;;;4801966;29;20472;-73
2022/01/03 07:41:51;;;;;;;2.70;2.50;;;;;;;;;;4788793;29;20067;-73
2022/01/03 07:44:19;;;;;;;4.28;2.40;;;;;;;;;;4783236;30;20488;-73
2022/01/03 07:46:46;;;;;;;3.90;2.67;;;;;;;;;;4783142;29;20150;-73
2022/01/03 07:49:14;;;;;;;2.35;2.15;;;;;;;;;;4782485;30;20059;-73
2022/01/03 07:51:41;;;;;;;3.92;2.28;;;;;;;;;;4793197;29;20055;-73
2022/01/03 07:54:08;;;;;;;4.13;2.75;;;;;;;;;;4801873;29;20039;-73
2022/01/03 07:56:36;;;;;;;3.08;2.60;;;;;;;;;;4800416;29;20047;-73
2022/01/03 07:59:05;;;;;;;4.05;3.03;;;;;;;;;;4801445;29;20077;-73
2022/01/03 08:01:33;;;;;;;5.75;2.60;;;;;;;;;;4790256;29;20078;-73
2022/01/03 08:04:01;;;;;;;4.75;2.50;;;;;;;;;;4783695;29;20103;-74
2022/01/03 08:06:45;;;;;;;3.67;2.85;;;;;;;;;;4795388;29;20058;-73
2022/01/03 08:09:12;;;;;;;4.63;2.63;;;;;;;;;;4800476;29;20124;-72
2022/01/03 08:11:40;;;;;;;5.10;2.90;;;;;;;;;;4799419;29;20054;-73
2022/01/03 08:14:07;;;;;;;3.83;3.15;;;;;;;;;;4801490;29;20078;-73
2022/01/03 08:16:34;;;;;;;3.30;3.00;;;;;;;;;;4801378;29;20138;-72
2022/01/03 08:19:02;;;;;;;3.45;2.88;;;;;;;;;;4804692;29;20274;-73
2022/01/03 08:21:29;;;;;;;3.10;2.85;;;;;;;;;;4803875;29;20130;-73
2022/01/03 08:23:57;;;;;;;4.13;2.70;;;;;;;;;;4804818;29;20155;-72
2022/01/03 08:26:24;;;;;;;2.75;2.53;;;;;;;;;;4804208;29;20388;-73
2022/01/03 08:28:52;;;;;;;3.67;2.67;;;;;;;;;;4802807;29;20576;-73
2022/01/03 08:31:21;;;;;;;5.65;2.70;;;;;;;;;;4793636;29;20108;-73
2022/01/03 08:33:49;;;;;;;4.13;2.22;;;;;;;;;;4786065;29;20515;-73
2022/01/03 08:36:16;;;;;;;2.22;2.03;;;;;;;;;;4788563;29;20504;-72
2022/01/03 08:38:44;;;;;;;3.88;2.50;;;;;;;;;;4803537;29;20039;-72
2022/01/03 08:41:11;;;;;;;2.42;2.22;;;;;;;;;;4800977;29;20054;-72
2022/01/03 08:43:39;;;;;;;3.65;2.78;;;;;;;;;;4803034;29;20050;-72
2022/01/03 08:46:06;;;;;;;3.05;2.72;;;;;;;;;;4796730;29;20047;-72
2022/01/03 08:48:35;;;;;;;4.88;3.45;;;;;;;;;;4818245;29;20069;-73
2022/01/03 08:51:02;;;;;;;4.95;4.47;;;;;;;;;;4796392;29;20106;-73
2022/01/03 08:53:32;;;;;;;5.05;3.75;;;;;;;;;;4801677;29;20046;-73
2022/01/03 08:56:00;;;;;;;4.28;3.88;;;;;;;;;;4797234;29;20078;-73
2022/01/03 08:58:27;;;;;;;4.53;4.13;;;;;;;;;;4785033;29;20096;-73
2022/01/03 09:00:55;;;;;;;4.57;4.18;;;;;;;;;;4785307;29;20260;-73
2022/01/03 09:03:23;;;;;;;5.03;4.63;;;;;;;;;;4785316;29;20043;-73
2022/01/03 09:05:53;;;;;;;38.03;24.75;;;;;;;;;;4784070;29;20039;-73
2022/01/03 09:08:21;;;;;;;11.27;8.95;;;;;;;;;;4784711;29;20157;-73
2022/01/03 09:10:49;;;;;;;10.73;9.68;;;;;;;;;;4768782;29;20652;-73
2022/01/03 09:13:17;;;;;;;8.30;5.05;;;;;;;;;;4783647;29;20111;-71
2022/01/03 09:15:46;;;;;;;11.27;7.65;;;;;;;;;;4784971;29;20043;-72
2022/01/03 09:18:14;;;;;;;7.53;6.72;;;;;;;;;;4814068;29;20054;-73
2022/01/03 09:20:42;;;;;;;10.88;6.93;;;;;;;;;;4782729;29;20047;-72
2022/01/03 09:23:25;;;;;;;10.32;7.85;;;;;;;;;;4784875;29;20492;-72
2022/01/03 09:28:49;;;;;;;4.70;4.30;;;;;;;;;;4787952;29;20089;-72
2022/01/03 09:31:17;;;;;;;4.43;4.00;;;;;;;;;;4789959;29;20043;-72
2022/01/03 09:33:47;;;;;;;6.00;5.50;;;;;;;;;;4785922;29;20240;-73
2022/01/03 09:36:16;;;;;;;4.75;4.35;;;;;;;;;;4784834;29;20058;-73
2022/01/03 09:38:44;;;;;;;7.05;5.60;;;;;;;;;;4788494;29;20043;-71
2022/01/03 09:41:13;;;;;;;5.15;4.57;;;;;;;;;;4781487;29;20074;-72
2022/01/03 09:43:48;;;;;;;2.92;2.60;;;;;;;;;;4784214;29;20047;-73
2022/01/03 09:46:19;;;;;;;2.58;2.38;;;;;;;;;;4783641;29;20047;-72
2022/01/03 09:48:52;;;;;;;3.25;2.20;;;;;;;;;;4785631;29;20081;-72
2022/01/03 09:51:19;;;;;;;;;;;;;;;;;;4795963;29;20043;-72
2022/01/03 09:53:48;;;;;;;3.25;2.63;;;;;;;;;;4784958;29;19929;-72
2022/01/03 09:56:17;;;;;;;3.40;3.08;;;;;;;;;;4777252;29;20125;-72
2022/01/03 09:58:44;;;;;;;3.13;2.47;;;;;;;;;;4803183;29;20069;-72
2022/01/03 10:01:12;;;;;;;3.30;2.58;;;;;;;;;;4794838;29;20079;-72
2022/01/03 10:03:47;;;;;;;5.13;2.90;;;;;;;;;;4783550;29;20047;-72
2022/01/03 10:06:18;;;;;;;4.20;2.65;;;;;;;;;;4784486;29;20159;-72
2022/01/03 10:08:46;;;;;;;2.93;2.57;;;;;;;;;;4785245;30;20126;-72
2022/01/03 10:11:14;;;;;;;2.53;2.33;;;;;;;;;;4784459;29;20096;-72
2022/01/03 10:13:42;;;;;;;3.92;2.20;;;;;;;;;;4777967;29;20101;-72
2022/01/03 10:16:09;;;;;;;2.47;2.28;;;;;;;;;;4783020;29;20050;-72
2022/01/03 10:18:55;;;;;;;3.20;2.90;;;;;;;;;;4780993;30;20046;-72
2022/01/03 10:21:35;;;;;;;2.00;1.90;;;;;;;;;;4785670;29;20043;-72
2022/01/03 10:24:03;;;;;;;2.85;2.28;;;;;;;;;;4808561;29;20039;-72
2022/01/03 10:26:30;;;;;;;3.58;2.70;;;;;;;;;;4802067;29;20051;-72
2022/01/03 10:29:12;;;;;;;3.05;2.55;;;;;;;;;;4806151;29;20042;-72
2022/01/03 10:31:40;;;;;;;6.63;3.17;;;;;;;;;;4791761;29;20075;-72
2022/01/03 10:34:09;;;;;;;4.80;3.13;;;;;;;;;;4785989;29;20229;-72
2022/01/03 10:36:42;;;;;;;3.70;3.05;;;;;;;;;;4796101;29;20047;-72
2022/01/03 10:39:14;;;;;;;5.93;3.20;;;;;;;;;;4803209;29;20146;-72
2022/01/03 10:41:42;;;;;;;2.22;2.10;;;;;;;;;;4800728;29;20047;-72
2022/01/03 10:44:09;;;;;;;4.63;2.63;;;;;;;;;;4803256;29;20062;-72
2022/01/03 10:46:38;;;;;;;3.33;2.03;;;;;;;;;;4802478;29;20061;-72
2022/01/03 10:49:13;;;;;;;3.25;2.95;;;;;;;;;;4802815;29;20073;-72
2022/01/03 10:51:41;;;;;;;3.38;3.00;;;;;;;;;;4801451;29;20457;-73
2022/01/03 10:54:09;;;;;;;4.93;2.92;;;;;;;;;;4793399;29;20051;-73
2022/01/03 10:56:38;;;;;;;2.95;2.70;;;;;;;;;;4784173;29;20513;-72
2022/01/03 10:59:18;;;;;;;5.60;3.30;;;;;;;;;;4784312;29;20519;-72
2022/01/03 11:01:47;;;;;;;3.47;3.17;;;;;;;;;;4782743;29;20265;-72
2022/01/03 11:04:33;;;;;;;3.17;2.63;;;;;;;;;;4784147;29;20058;-72
2022/01/03 11:10:44;;;;;;;5.93;3.00;;;;;;;;;;4798478;29;20051;-72
2022/01/03 11:13:12;;;;;;;5.28;2.33;;;;;;;;;;4802090;29;20318;-72
2022/01/03 11:15:41;;;;;;;2.50;2.30;;;;;;;;;;4801569;29;20151;-72
2022/01/03 11:18:11;;;;;;;4.28;2.53;;;;;;;;;;4802131;29;20051;-72
2022/01/03 11:20:40;;;;;;;3.10;1.88;;;;;;;;;;4796809;29;20049;-72
2022/01/03 11:23:07;;;;;;;2.72;1.90;;;;;;;;;;4783826;29;20109;-72
2022/01/03 11:25:35;;;;;;;3.92;2.58;;;;;;;;;;4783642;29;20138;-72
2022/01/03 11:28:04;;;;;;;4.40;1.65;;;;;;;;;;4783839;29;20124;-72
2022/01/03 11:30:32;;;;;;;3.33;1.90;;;;;;;;;;4784385;29;20582;-72
2022/01/03 11:33:00;;;;;;;4.80;3.30;;;;;;;;;;4800332;29;20047;-73
2022/01/03 11:35:32;;;;;;;3.90;2.10;;;;;;;;;;4797606;29;20051;-72
2022/01/03 11:38:00;;;;;;;3.20;1.90;;;;;;;;;;4783337;29;20057;-72
2022/01/03 11:40:28;;;;;;;2.85;2.33;;;;;;;;;;4783909;29;20512;-72
2022/01/03 11:42:55;;;;;;;2.13;1.80;;;;;;;;;;4783173;29;20070;-73
2022/01/03 11:45:23;;;;;;;2.40;1.90;;;;;;;;;;4812320;29;20054;-72
2022/01/03 11:47:51;;;;;;;1.90;1.70;;;;;;;;;;4782277;29;20051;-73
2022/01/03 11:50:18;;;;;;;3.65;3.35;;;;;;;;;;4781563;29;20135;-72
2022/01/03 11:52:47;;;;;;;2.17;1.98;;;;;;;;;;4781941;29;20122;-72
2022/01/03 11:55:16;;;;;;;1.67;1.58;;;;;;;;;;4787123;29;20459;-72
2022/01/03 11:58:12;;;;;;;2.28;1.63;;;;;;;;;;4786010;30;20066;-72
2022/01/03 12:03:50;;;;;;;3.75;1.80;;;;;;;;;;4789104;29;20531;-72
2022/01/03 12:06:25;;;;;;;2.90;2.10;;;;;;;;;;4818555;29;20054;-72
2022/01/03 12:08:56;;;;;;;3.00;1.52;;;;;;;;;;4807249;29;20053;-72
2022/01/03 12:11:25;;;;;;;2.63;2.28;;;;;;;;;;4797498;29;20123;-72
2022/01/03 12:13:53;;;;;;;2.70;2.38;;;;;;;;;;4788187;30;20134;-72
2022/01/03 12:16:37;;;;;;;4.07;2.08;;;;;;;;;;4788781;29;20119;-72
2022/01/03 12:19:10;;;;;;;10.90;8.43;;;;;;;;;;4787439;29;20067;-72
2022/01/03 12:21:50;;;;;;;13.05;7.97;;;;;;;;;;4808779;29;20071;-72
2022/01/03 12:24:29;;;;;;;9.80;6.53;;;;;;;;;;4787647;29;20047;-70
2022/01/03 12:27:13;;;;;;;6.57;3.97;;;;;;;;;;4791283;29;20040;-69
2022/01/03 12:29:58;;;;;;;23.70;14.93;;;;;;;;;;4786091;29;20417;-68
2022/01/03 12:32:36;;;;;;;10.98;5.88;;;;;;;;;;4789338;29;20076;-69
2022/01/03 12:35:13;;;;;;;25.75;15.40;;;;;;;;;;4787123;29;20058;-69
2022/01/03 12:37:47;;;;;;;18.65;11.60;;;;;;;;;;4769047;30;20150;-69
2022/01/03 12:40:17;;;;;;;9.18;5.18;;;;;;;;;;4769510;29;20382;-70
2022/01/03 12:45:44;;;;;;;6.05;4.07;;;;;;;;;;4768193;29;20536;-70
2022/01/03 12:48:12;;;;;;;8.10;4.28;;;;;;;;;;4792127;29;20166;-70
2022/01/03 12:50:44;;;;;;;9.55;5.97;;;;;;;;;;4799151;29;20527;-69
2022/01/03 12:53:31;;;;;;;14.18;6.65;;;;;;;;;;4804430;29;20061;-69
2022/01/03 12:56:02;;;;;;;7.18;4.40;;;;;;;;;;4800551;29;20070;-69
2022/01/03 12:58:29;;;;;;;8.02;5.10;;;;;;;;;;4804537;29;20090;-68
2022/01/03 13:01:08;;;;;;;10.00;4.72;;;;;;;;;;4791944;29;20071;-69
2022/01/03 13:03:50;;;;;;;10.75;5.70;;;;;;;;;;4784885;29;20044;-69
2022/01/03 13:06:17;;;;;;;10.80;6.33;;;;;;;;;;4787161;29;20055;-68
2022/01/03 13:09:01;;;;;;;11.90;5.57;;;;;;;;;;4786941;29;20055;-69
2022/01/03 13:11:36;;;;;;;10.48;6.07;;;;;;;;;;4808304;29;20141;-68
2022/01/03 13:14:05;;;;;;;8.00;6.03;;;;;;;;;;4786824;29;20130;-68
2022/01/03 13:16:37;;;;;;;8.52;6.93;;;;;;;;;;4797159;29;20053;-69
2022/01/03 13:19:06;;;;;;;;;;;;;;;;;;4805183;29;20039;-68
2022/01/03 13:21:38;;;;;;;7.20;6.13;;;;;;;;;;4803387;29;19925;-68
2022/01/03 13:24:09;;;;;;;10.73;6.43;;;;;;;;;;4805237;29;20039;-69
2022/01/03 13:26:50;;;;;;;11.18;5.82;;;;;;;;;;4803003;29;20047;-69
2022/01/03 13:29:18;;;;;;;10.30;6.43;;;;;;;;;;4804384;29;20055;-67
2022/01/03 13:31:49;;;;;;;12.50;8.30;;;;;;;;;;4791842;29;20300;-69
2022/01/03 13:34:19;;;;;;;11.25;7.13;;;;;;;;;;4786759;29;20062;-69
2022/01/03 13:36:47;;;;;;;11.90;7.30;;;;;;;;;;4785329;29;20477;-69
2022/01/03 13:39:18;;;;;;;12.00;8.50;;;;;;;;;;4786637;29;20049;-69
2022/01/03 13:41:47;;;;;;;10.18;8.55;;;;;;;;;;4775804;30;20412;-69
2022/01/03 13:44:24;;;;;;;14.05;8.00;;;;;;;;;;4767005;30;20496;-68
2022/01/03 13:49:46;;;;;;;13.07;8.05;;;;;;;;;;4803706;29;20559;-69
2022/01/03 13:52:17;;;;;;;8.25;6.05;;;;;;;;;;4787661;29;20051;-68
2022/01/03 13:54:45;;;;;;;10.55;9.07;;;;;;;;;;4785646;30;20067;-68
2022/01/03 13:57:17;;;;;;;10.75;7.82;;;;;;;;;;4801204;29;20527;-69
2022/01/03 13:59:45;;;;;;;10.02;8.27;;;;;;;;;;4797747;29;20046;-69
2022/01/03 14:02:12;;;;;;;16.00;10.35;;;;;;;;;;4787059;29;20126;-69
2022/01/03 14:04:40;;;;;;;16.23;11.30;;;;;;;;;;4786366;29;20404;-69
2022/01/03 14:07:09;;;;;;;16.75;11.48;;;;;;;;;;4800139;29;20053;-68
2022/01/03 14:10:00;;;;;;;19.92;11.68;;;;;;;;;;4802076;29;20062;-68
2022/01/03 14:12:28;;;;;;;22.90;13.75;;;;;;;;;;4802896;29;20081;-68
2022/01/03 14:15:01;;;;;;;14.50;9.70;;;;;;;;;;4802506;29;20043;-69
2022/01/03 14:17:28;;;;;;;17.35;10.43;;;;;;;;;;4785323;29;20477;-68
2022/01/03 14:20:06;;;;;;;9.95;7.68;;;;;;;;;;4785238;29;20043;-68
2022/01/03 14:22:36;;;;;;;17.20;10.80;;;;;;;;;;4785738;29;20534;-68
2022/01/03 14:25:03;;;;;;;21.67;12.20;;;;;;;;;;4785671;30;20058;-69
2022/01/03 14:27:38;;;;;;;15.80;11.40;;;;;;;;;;4802613;29;20246;-68
2022/01/03 14:30:14;;;;;;;20.27;11.63;;;;;;;;;;4802987;29;20085;-68
2022/01/03 14:32:44;;;;;;;9.15;6.85;;;;;;;;;;4766856;30;20054;-69
2022/01/03 14:35:11;;;;;;;14.15;6.95;;;;;;;;;;4766820;29;20047;-69
2022/01/03 14:37:39;;;;;;;16.92;9.68;;;;;;;;;;4781693;29;20055;-69
2022/01/03 14:40:07;;;;;;;18.15;9.98;;;;;;;;;;4784951;30;20057;-69
2022/01/03 14:42:36;;;;;;;65.68;16.70;;;;;;;;;;4784834;29;20050;-68
2022/01/03 14:45:10;;;;;;;9.85;6.07;;;;;;;;;;4784754;29;20567;-69
2022/01/03 14:47:37;;;;;;;10.20;5.65;;;;;;;;;;4767243;30;20527;-68
2022/01/03 14:50:05;;;;;;;11.55;7.45;;;;;;;;;;4765786;30;20131;-71
2022/01/03 14:52:35;;;;;;;13.68;8.68;;;;;;;;;;4802494;29;20396;-69
2022/01/03 14:55:03;;;;;;;11.95;7.65;;;;;;;;;;4803354;29;20126;-69
2022/01/03 14:57:31;;;;;;;17.42;11.43;;;;;;;;;;4784957;29;20109;-67
2022/01/03 14:59:59;;;;;;;15.65;8.15;;;;;;;;;;4784651;29;20078;-69
2022/01/03 15:02:27;;;;;;;18.27;12.85;;;;;;;;;;4784449;29;20055;-69
2022/01/03 15:04:55;;;;;;;9.32;5.75;;;;;;;;;;4785053;29;20044;-69
2022/01/03 15:07:26;;;;;;;15.93;9.55;;;;;;;;;;4783486;29;20138;-68
2022/01/03 15:09:54;;;;;;;18.73;12.45;;;;;;;;;;4782934;30;20537;-69
2022/01/03 15:12:42;;;;;;;27.70;13.32;;;;;;;;;;4767492;29;20043;-68
2022/01/03 15:15:17;;;;;;;18.77;11.32;;;;;;;;;;4779286;29;20058;-68
2022/01/03 15:17:46;;;;;;;19.05;13.95;;;;;;;;;;4831762;24;20527;-65
2022/01/03 15:20:15;;;;;;;17.85;10.13;;;;;;;;;;4821266;29;20038;-64
2022/01/03 15:22:42;;;;;;;20.25;13.85;;;;;;;;;;4815783;29;20614;-65